createdAt,value
2023-01-02T00:00:42.679Z,56.88
2023-01-02T00:03:13.791Z,57.30
2023-01-02T00:05:44.371Z,56.30
2023-01-02T00:08:14.469Z,56.48
2023-01-02T00:10:45.303Z,58.13
2023-01-02T00:13:18.538Z,56.90
2023-01-02T00:15:49.411Z,56.23
2023-01-02T00:18:21.553Z,57.39
2023-01-02T00:20:51.923Z,57.35
2023-01-02T00:23:22.845Z,56.76
2023-01-02T00:25:52.963Z,56.48
2023-01-02T00:28:23.257Z,56.97
2023-01-02T00:30:54.160Z,57.23
2023-01-02T00:33:25.646Z,58.32
2023-01-02T00:35:55.600Z,58.07
2023-01-02T00:38:25.335Z,58.21
2023-01-02T00:40:55.916Z,58.04
2023-01-02T00:43:26.681Z,57.90
2023-01-02T00:45:57.687Z,58.67
2023-01-02T00:48:27.933Z,58.55
2023-01-02T00:50:57.667Z,58.42
2023-01-02T00:53:27.950Z,58.38
2023-01-02T00:55:58.247Z,58.50
2023-01-02T00:58:29.699Z,58.42
2023-01-02T01:00:59.444Z,58.54
2023-01-02T01:03:29.886Z,58.61
2023-01-02T01:05:59.859Z,58.58
2023-01-02T01:08:31.748Z,58.76
2023-01-02T01:11:08.114Z,59.06
2023-01-02T01:13:39.330Z,59.86
2023-01-02T01:16:18.445Z,59.78
2023-01-02T01:18:50.983Z,60.12
2023-01-02T01:24:19.686Z,59.94
2023-01-02T01:26:49.397Z,59.68
2023-01-02T01:29:20.903Z,60.08
2023-01-02T01:31:51.403Z,60.65
2023-01-02T01:34:21.320Z,61.02
2023-01-02T01:36:51.733Z,61.32
2023-01-02T01:39:22.123Z,61.53
2023-01-02T01:41:53.995Z,61.25
2023-01-02T01:44:43.538Z,60.87
2023-01-02T01:47:39.599Z,61.03
2023-01-02T01:50:24.014Z,62.06
2023-01-02T01:53:09.346Z,61.19
2023-01-02T01:55:53.223Z,61.18
2023-01-02T01:58:28.824Z,61.39
2023-01-02T02:01:00.298Z,60.90
2023-01-02T02:03:34.751Z,60.55
2023-01-02T02:06:05.930Z,60.52
2023-01-02T02:09:01.279Z,60.89
2023-01-02T02:11:32.843Z,61.65
2023-01-02T02:14:04.376Z,60.85
2023-01-02T02:17:01.342Z,60.15
2023-01-02T02:19:58.152Z,60.12
2023-01-02T02:22:46.441Z,59.80
2023-01-02T02:26:09.274Z,60.42
2023-01-02T02:28:57.479Z,60.19
2023-01-02T02:31:41.676Z,61.01
2023-01-02T02:34:25.723Z,59.44
2023-01-02T02:37:09.610Z,59.34
2023-01-02T02:39:56.591Z,59.87
2023-01-02T02:42:45.269Z,59.65
2023-01-02T02:45:24.932Z,59.40
2023-01-02T02:48:12.837Z,59.72
2023-01-02T02:50:52.582Z,58.93
2023-01-02T02:53:31.026Z,58.88
2023-01-02T02:56:04.854Z,57.94
2023-01-02T02:58:36.250Z,59.85
2023-01-02T03:01:13.005Z,59.22
2023-01-02T03:03:43.401Z,60.40
2023-01-02T03:06:25.613Z,60.46
2023-01-02T03:09:14.587Z,58.96
2023-01-02T03:12:01.292Z,58.57
2023-01-02T03:15:00.025Z,58.91
2023-01-02T03:17:54.052Z,60.05
2023-01-02T03:20:29.121Z,59.82
2023-01-02T03:23:06.419Z,61.47
2023-01-02T03:25:38.373Z,61.84
2023-01-02T03:28:11.755Z,62.64
2023-01-02T03:30:44.198Z,64.55
2023-01-02T03:33:23.053Z,64.66
2023-01-02T03:35:58.628Z,64.49
2023-01-02T03:38:40.165Z,67.27
2023-01-02T03:41:26.307Z,67.16
2023-01-02T03:43:58.462Z,68.47
2023-01-02T03:46:38.964Z,67.17
2023-01-02T03:49:15.878Z,68.54
2023-01-02T03:51:46.987Z,68.77
2023-01-02T03:54:19.900Z,69.57
2023-01-02T03:57:05.326Z,71.27
2023-01-02T03:59:41.040Z,70.24
2023-01-02T04:02:36.136Z,71.35
2023-01-02T04:05:36.469Z,70.81
2023-01-02T04:08:15.009Z,71.85
2023-01-02T04:10:51.805Z,72.08
2023-01-02T04:13:31.841Z,71.92
2023-01-02T04:16:05.518Z,72.26
2023-01-02T04:18:48.779Z,72.35
2023-01-02T04:21:25.108Z,73.17
2023-01-02T04:24:22.173Z,73.52
2023-01-02T04:27:08.397Z,73.29
2023-01-02T04:29:39.998Z,73.61
2023-01-02T04:32:21.833Z,73.60
2023-01-02T04:34:54.377Z,75.02
2023-01-02T04:37:37.839Z,75.05
2023-01-02T04:40:19.948Z,74.44
2023-01-02T04:42:50.142Z,76.05
2023-01-02T04:45:20.337Z,75.94
2023-01-02T04:47:52.091Z,75.29
2023-01-02T04:50:22.428Z,74.95
2023-01-02T04:52:52.475Z,74.93
2023-01-02T04:55:22.631Z,74.87
2023-01-02T04:57:52.451Z,75.93
2023-01-02T05:00:22.725Z,76.04
2023-01-02T05:02:54.177Z,75.77
2023-01-02T05:05:24.815Z,75.09
2023-01-02T05:07:54.703Z,75.03
2023-01-02T05:10:25.832Z,75.98
2023-01-02T05:12:59.344Z,76.27
2023-01-02T05:15:29.501Z,74.84
2023-01-02T05:17:59.951Z,73.33
2023-01-02T05:20:30.342Z,73.79
2023-01-02T05:23:19.233Z,74.41
2023-01-02T05:25:51.037Z,73.82
2023-01-02T05:28:20.991Z,73.22
2023-01-02T05:30:50.909Z,73.57
2023-01-02T05:33:21.143Z,73.83
2023-01-02T05:35:52.388Z,74.71
2023-01-02T05:38:28.160Z,74.50
2023-01-02T05:41:05.655Z,73.60
2023-01-02T05:43:38.541Z,74.30
2023-01-02T05:46:13.706Z,75.64
2023-01-02T05:48:44.506Z,73.69
2023-01-02T05:51:16.240Z,75.78
2023-01-02T05:53:47.573Z,76.36
2023-01-02T05:56:20.211Z,76.13
2023-01-02T05:58:51.748Z,76.07
2023-01-02T06:01:27.249Z,75.36
2023-01-02T06:04:00.459Z,72.66
2023-01-02T06:06:40.069Z,71.44
2023-01-02T06:09:16.242Z,70.17
2023-01-02T06:11:46.629Z,69.47
2023-01-02T06:14:16.732Z,67.82
2023-01-02T06:16:47.559Z,67.91
2023-01-02T06:19:17.753Z,67.33
2023-01-02T06:21:47.743Z,66.71
2023-01-02T06:24:17.699Z,66.16
2023-01-02T06:26:48.585Z,66.21
2023-01-02T06:29:18.383Z,65.89
2023-01-02T06:31:51.553Z,65.55
2023-01-02T06:34:22.491Z,65.99
2023-01-02T06:36:52.235Z,66.27
2023-01-02T06:39:22.671Z,65.82
2023-01-02T06:42:00.703Z,65.63
2023-01-02T06:44:31.977Z,65.15
2023-01-02T06:47:02.471Z,66.06
2023-01-02T06:49:32.634Z,65.57
2023-01-02T06:52:02.970Z,65.64
2023-01-02T06:54:34.662Z,65.99
2023-01-02T06:57:06.327Z,65.78
2023-01-02T06:59:36.872Z,66.00
2023-01-02T07:02:07.566Z,66.14
2023-01-02T07:04:37.369Z,67.52
2023-01-02T07:07:08.403Z,67.76
2023-01-02T07:09:39.298Z,68.26
2023-01-02T07:12:09.590Z,67.85
2023-01-02T07:14:39.438Z,68.38
2023-01-02T07:17:09.602Z,68.72
2023-01-02T07:19:39.307Z,68.68
2023-01-02T07:22:09.993Z,68.20
2023-01-02T07:24:40.582Z,68.92
2023-01-02T07:27:10.572Z,68.09
2023-01-02T07:29:41.484Z,68.84
2023-01-02T07:32:11.884Z,68.77
2023-01-02T07:34:43.419Z,68.89
2023-01-02T07:37:14.844Z,69.56
2023-01-02T07:39:45.086Z,70.57
2023-01-02T07:42:15.710Z,70.90
2023-01-02T07:44:47.495Z,71.18
2023-01-02T07:47:17.870Z,71.40
2023-01-02T07:49:49.257Z,72.32
2023-01-02T07:52:19.409Z,72.09
2023-01-02T07:54:49.134Z,72.11
2023-01-02T07:57:19.747Z,70.93
2023-01-02T07:59:51.238Z,71.36
2023-01-02T08:02:21.995Z,71.58
2023-01-02T08:04:51.750Z,71.14
2023-01-02T08:07:23.180Z,72.02
2023-01-02T08:09:53.791Z,72.63
2023-01-02T08:12:24.571Z,73.57
2023-01-02T08:14:54.887Z,73.32
2023-01-02T08:17:24.792Z,73.40
2023-01-02T08:19:54.774Z,74.32
2023-01-02T08:22:25.960Z,74.15
2023-01-02T08:24:57.109Z,73.90
2023-01-02T08:27:27.242Z,74.93
2023-01-02T08:29:56.982Z,75.69
2023-01-02T08:32:27.761Z,75.79
2023-01-02T08:34:58.601Z,76.61
2023-01-02T08:37:29.545Z,76.96
2023-01-02T08:39:59.290Z,77.20
2023-01-02T08:42:29.438Z,77.04
2023-01-02T08:44:59.928Z,78.40
2023-01-02T08:47:30.590Z,78.02
2023-01-02T08:50:00.443Z,77.49
2023-01-02T08:52:30.892Z,78.79
2023-01-02T08:55:05.011Z,78.31
2023-01-02T08:57:35.648Z,78.37
2023-01-02T09:00:07.310Z,78.98
2023-01-02T09:02:38.134Z,78.73
2023-01-02T09:05:08.802Z,77.75
2023-01-02T09:07:40.428Z,77.65
2023-01-02T09:10:12.638Z,77.50
2023-01-02T09:12:43.250Z,78.69
2023-01-02T09:15:14.375Z,76.23
2023-01-02T09:17:45.489Z,75.59
2023-01-02T09:20:15.929Z,72.87
2023-01-02T09:22:45.902Z,72.13
2023-01-02T09:25:22.011Z,71.25
2023-01-02T09:27:54.100Z,70.89
2023-01-02T09:30:24.680Z,70.51
2023-01-02T09:32:56.944Z,71.24
2023-01-02T09:35:27.258Z,71.74
2023-01-02T09:37:57.224Z,71.02
2023-01-02T09:40:28.636Z,72.54
2023-01-02T09:43:01.455Z,71.08
2023-01-02T09:45:33.232Z,72.43
2023-01-02T09:48:04.171Z,70.10
2023-01-02T09:50:35.096Z,70.95
2023-01-02T09:53:07.062Z,69.69
2023-01-02T09:55:59.574Z,69.07
2023-01-02T09:58:47.788Z,69.49
2023-01-02T10:01:34.785Z,68.25
2023-01-02T10:04:36.670Z,67.98
2023-01-02T10:07:19.592Z,67.35
2023-01-02T10:10:10.056Z,66.11
2023-01-02T10:12:47.941Z,65.02
2023-01-02T10:15:27.542Z,66.24
2023-01-02T10:18:08.034Z,65.95
2023-01-02T10:20:43.073Z,65.08
2023-01-02T10:23:23.952Z,65.86
2023-01-02T10:26:00.657Z,65.62
2023-01-02T10:29:06.513Z,64.77
2023-01-02T10:31:44.011Z,65.31
2023-01-02T10:34:20.385Z,65.76
2023-01-02T10:36:51.963Z,64.50
2023-01-02T10:39:25.966Z,64.98
2023-01-02T10:42:00.266Z,64.88
2023-01-02T10:44:39.987Z,63.51
2023-01-02T10:47:37.365Z,64.30
2023-01-02T10:50:16.817Z,63.71
2023-01-02T10:53:07.479Z,63.20
2023-01-02T10:55:44.751Z,63.98
2023-01-02T10:58:30.683Z,62.83
2023-01-02T11:01:22.276Z,62.21
2023-01-02T11:04:00.784Z,62.96
2023-01-02T11:06:39.417Z,62.86
2023-01-02T11:09:39.620Z,64.92
2023-01-02T11:12:13.626Z,63.25
2023-01-02T11:14:44.450Z,64.72
2023-01-02T11:17:17.358Z,63.09
2023-01-02T11:19:54.128Z,64.85
2023-01-02T11:22:37.097Z,63.96
2023-01-02T11:25:14.895Z,63.09
2023-01-02T11:27:46.235Z,63.42
2023-01-02T11:30:54.598Z,64.41
2023-01-02T11:33:34.071Z,63.74
2023-01-02T11:36:06.209Z,64.06
2023-01-02T11:38:48.447Z,63.08
2023-01-02T11:41:50.693Z,64.04
2023-01-02T11:44:54.619Z,64.08
2023-01-02T11:47:35.272Z,64.29
2023-01-02T11:50:06.305Z,62.86
2023-01-02T11:52:50.328Z,60.89
2023-01-02T11:55:46.254Z,64.10
2023-01-02T11:58:35.226Z,63.53
2023-01-02T12:01:20.520Z,62.29
2023-01-02T12:03:52.532Z,60.91
2023-01-02T12:06:26.267Z,60.70
2023-01-02T12:09:13.170Z,61.66
2023-01-02T12:12:04.593Z,62.64
2023-01-02T12:15:20.463Z,62.35
2023-01-02T12:18:00.187Z,62.36
2023-01-02T12:20:42.544Z,62.25
2023-01-02T12:23:28.776Z,63.31
2023-01-02T12:26:10.919Z,63.03
2023-01-02T12:28:54.870Z,63.28
2023-01-02T12:32:21.130Z,63.43
2023-01-02T12:35:28.408Z,62.36
2023-01-02T12:38:01.267Z,62.25
2023-01-02T12:41:07.594Z,62.30
2023-01-02T12:43:45.545Z,60.87
2023-01-02T12:46:30.544Z,62.78
2023-01-02T12:49:13.382Z,60.60
2023-01-02T12:52:05.113Z,59.54
2023-01-02T12:54:41.632Z,58.81
2023-01-02T12:57:13.686Z,58.12
2023-01-02T12:59:50.975Z,58.39
2023-01-02T13:03:22.460Z,58.87
2023-01-02T13:05:59.398Z,58.93
2023-01-02T13:08:37.284Z,58.52
2023-01-02T13:11:11.022Z,58.93
2023-01-02T13:13:41.290Z,59.72
2023-01-02T13:16:24.942Z,61.52
2023-01-02T13:19:40.970Z,60.05
2023-01-02T13:22:37.021Z,59.98
2023-01-02T13:25:14.952Z,58.67
2023-01-02T13:27:46.781Z,60.19
2023-01-02T13:30:36.031Z,59.56
2023-01-02T13:33:38.790Z,60.11
2023-01-02T13:36:31.105Z,59.92
2023-01-02T13:39:07.875Z,58.81
2023-01-02T13:42:00.920Z,58.03
2023-01-02T13:44:41.210Z,57.22
2023-01-02T13:47:37.751Z,58.07
2023-01-02T13:50:17.050Z,57.75
2023-01-02T13:53:32.894Z,57.71
2023-01-02T13:56:13.493Z,57.10
2023-01-02T13:58:51.871Z,55.65
2023-01-02T14:01:25.357Z,56.85
2023-01-02T14:04:14.530Z,56.32
2023-01-02T14:06:53.626Z,55.26
2023-01-02T14:09:27.725Z,54.22
2023-01-02T14:12:04.580Z,53.46
2023-01-02T14:14:53.146Z,54.81
2023-01-02T14:17:56.999Z,55.05
2023-01-02T14:20:30.723Z,54.93
2023-01-02T14:23:07.513Z,56.08
2023-01-02T14:25:51.319Z,55.74
2023-01-02T14:28:29.550Z,53.42
2023-01-02T14:31:00.468Z,51.37
2023-01-02T14:33:36.279Z,52.04
2023-01-02T14:36:14.492Z,52.16
2023-01-02T14:38:55.351Z,50.76
2023-01-02T14:42:02.291Z,51.78
2023-01-02T14:44:33.128Z,51.78
2023-01-02T14:47:05.046Z,49.89
2023-01-02T14:49:37.121Z,50.13
2023-01-02T14:52:14.700Z,53.25
2023-01-02T14:54:53.140Z,51.73
2023-01-02T14:57:34.250Z,49.58
2023-01-02T15:00:17.826Z,50.05
2023-01-02T15:02:52.351Z,50.72
2023-01-02T15:05:49.763Z,53.23
2023-01-02T15:08:28.817Z,52.71
2023-01-02T15:11:23.005Z,51.24
2023-01-02T15:14:05.142Z,51.84
2023-01-02T15:17:01.521Z,49.97
2023-01-02T15:19:34.227Z,52.66
2023-01-02T15:22:15.822Z,52.58
2023-01-02T15:24:52.317Z,52.24
2023-01-02T15:27:31.822Z,52.12
2023-01-02T15:30:07.155Z,51.70
2023-01-02T15:32:38.459Z,51.50
2023-01-02T15:35:22.854Z,52.00
2023-01-02T15:37:53.432Z,51.73
2023-01-02T15:40:30.293Z,49.91
2023-01-02T15:43:26.094Z,50.23
2023-01-02T15:45:57.583Z,50.91
2023-01-02T15:48:29.694Z,50.30
2023-01-02T15:51:01.751Z,52.50
2023-01-02T15:53:42.713Z,50.28
2023-01-02T15:56:38.100Z,48.73
2023-01-02T15:59:35.244Z,47.35
2023-01-02T16:02:05.556Z,47.59
2023-01-02T16:04:36.753Z,46.34
2023-01-02T16:07:28.255Z,47.15
2023-01-02T16:09:58.869Z,47.78
2023-01-02T16:12:29.288Z,50.37
2023-01-02T16:15:02.050Z,52.10
2023-01-02T16:17:37.604Z,50.87
2023-01-02T16:20:29.172Z,52.28
2023-01-02T16:23:01.570Z,52.97
2023-01-02T16:25:45.497Z,51.74
2023-01-02T16:28:36.154Z,51.30
2023-01-02T16:31:17.046Z,51.76
2023-01-02T16:33:48.313Z,50.72
2023-01-02T16:36:25.746Z,46.99
2023-01-02T16:39:00.701Z,44.60
2023-01-02T16:41:42.033Z,46.23
2023-01-02T16:44:16.590Z,48.39
2023-01-02T16:46:52.018Z,51.05
2023-01-02T16:49:24.438Z,51.22
2023-01-02T16:51:55.880Z,52.79
2023-01-02T16:54:27.231Z,53.05
2023-01-02T16:56:57.617Z,52.84
2023-01-02T16:59:27.533Z,54.14
2023-01-02T17:01:57.979Z,53.73
2023-01-02T17:04:27.797Z,53.11
2023-01-02T17:06:59.773Z,53.62
2023-01-02T17:09:31.889Z,55.55
2023-01-02T17:12:02.945Z,52.69
2023-01-02T17:14:35.152Z,54.22
2023-01-02T17:17:05.489Z,51.16
2023-01-02T17:19:36.152Z,50.02
2023-01-02T17:22:06.546Z,49.66
2023-01-02T17:24:36.266Z,49.14
2023-01-02T17:27:07.919Z,51.00
2023-01-02T17:29:38.695Z,49.56
2023-01-02T17:32:09.886Z,49.54
2023-01-02T17:34:40.071Z,50.19
2023-01-02T17:37:11.109Z,49.86
2023-01-02T17:39:42.159Z,50.63
2023-01-02T17:42:13.371Z,51.59
2023-01-02T17:44:43.535Z,52.78
2023-01-02T17:50:04.752Z,52.24
2023-01-02T17:52:35.754Z,52.87
2023-01-02T17:55:08.043Z,57.86
2023-01-02T17:57:41.522Z,55.72
2023-01-02T18:00:15.210Z,56.47
2023-01-02T18:02:45.708Z,57.07
2023-01-02T18:05:16.072Z,56.30
2023-01-02T18:07:45.787Z,54.98
2023-01-02T18:10:20.130Z,55.47
2023-01-02T18:12:51.920Z,51.97
2023-01-02T18:15:23.887Z,46.59
2023-01-02T18:17:56.324Z,51.53
2023-01-02T18:20:27.312Z,51.27
2023-01-02T18:22:59.173Z,50.92
2023-01-02T18:25:33.321Z,51.85
2023-01-02T18:28:23.014Z,49.79
2023-01-02T18:30:58.392Z,49.38
2023-01-02T18:33:31.331Z,47.88
2023-01-02T18:36:08.151Z,47.35
2023-01-02T18:38:43.164Z,49.92
2023-01-02T18:41:35.420Z,47.06
2023-01-02T18:44:18.159Z,44.66
2023-01-02T18:47:02.014Z,47.25
2023-01-02T18:49:44.558Z,48.33
2023-01-02T18:52:33.249Z,49.73
2023-01-02T18:55:13.268Z,48.51
2023-01-02T18:57:49.914Z,47.24
2023-01-02T19:00:29.606Z,48.28
2023-01-02T19:03:18.980Z,48.34
2023-01-02T19:05:50.841Z,47.90
2023-01-02T19:08:21.144Z,48.19
2023-01-02T19:10:55.260Z,48.34
2023-01-02T19:13:37.919Z,50.28
2023-01-02T19:16:20.987Z,51.31
2023-01-02T19:18:56.592Z,53.27
2023-01-02T19:21:30.547Z,54.06
2023-01-02T19:24:25.301Z,54.72
2023-01-02T19:27:01.006Z,54.82
2023-01-02T19:29:35.019Z,55.48
2023-01-02T19:32:31.788Z,55.24
2023-01-02T19:35:11.168Z,56.57
2023-01-02T19:37:43.161Z,55.63
2023-01-02T19:40:25.932Z,54.22
2023-01-02T19:55:54.397Z,78.00
2023-01-02T19:58:25.045Z,81.28
2023-01-02T20:00:54.766Z,76.93
2023-01-02T20:03:25.259Z,80.26
2023-01-02T20:05:55.445Z,76.36
2023-01-02T20:08:26.051Z,68.95
2023-01-02T20:10:56.792Z,72.80
2023-01-02T20:13:26.746Z,74.49
2023-01-02T20:15:58.184Z,75.67
2023-01-02T20:18:29.156Z,75.95
2023-01-02T20:21:00.186Z,77.50
2023-01-02T20:23:30.617Z,77.83
2023-01-02T20:26:00.891Z,75.81
2023-01-02T20:28:32.934Z,75.85
2023-01-02T20:31:03.894Z,77.81
2023-01-02T20:33:34.286Z,78.08
2023-01-02T20:36:09.785Z,80.23
2023-01-02T20:38:44.114Z,80.79
2023-01-02T20:41:13.953Z,80.72
2023-01-02T20:43:46.253Z,80.43
2023-01-02T20:46:17.521Z,81.26
2023-01-02T20:48:48.573Z,80.52
2023-01-02T20:51:18.496Z,80.08
2023-01-02T20:53:48.777Z,80.68
2023-01-02T20:56:19.879Z,81.20
2023-01-02T20:58:52.875Z,81.09
2023-01-02T21:01:24.110Z,82.06
2023-01-02T21:03:55.236Z,81.05
2023-01-02T21:06:25.169Z,80.83
2023-01-02T21:08:55.849Z,81.37
2023-01-02T21:11:26.005Z,81.16
2023-01-02T21:13:56.222Z,81.49
2023-01-02T21:16:27.438Z,81.07
2023-01-02T21:19:01.178Z,81.53
2023-01-02T21:21:31.887Z,83.15
2023-01-02T21:24:02.664Z,81.81
2023-01-02T21:26:32.715Z,81.56
2023-01-02T21:29:05.116Z,82.44
2023-01-02T21:31:38.365Z,78.14
2023-01-02T21:34:09.113Z,73.96
2023-01-02T21:36:39.489Z,74.72
2023-01-02T21:39:10.778Z,74.15
2023-01-02T21:41:59.820Z,74.74
2023-01-02T21:44:29.749Z,75.59
2023-01-02T21:47:00.375Z,74.77
2023-01-02T21:49:32.070Z,76.17
2023-01-02T21:52:03.849Z,77.30
2023-01-02T21:54:34.116Z,78.14
2023-01-02T21:57:04.070Z,78.56
2023-01-02T21:59:34.397Z,78.72
2023-01-02T22:02:05.753Z,78.80
2023-01-02T22:04:38.575Z,78.90
2023-01-02T22:09:59.382Z,79.83
2023-01-02T22:12:30.924Z,80.75
2023-01-02T22:15:01.754Z,81.21
2023-01-02T22:17:31.876Z,82.20
2023-01-02T22:20:03.911Z,82.27
2023-01-02T22:22:34.538Z,82.84
2023-01-02T22:25:04.857Z,83.31
2023-01-02T22:27:36.174Z,84.21
2023-01-02T22:30:20.921Z,84.81
2023-01-02T22:32:57.411Z,84.97
2023-01-02T22:35:29.030Z,85.17
2023-01-02T22:38:00.459Z,85.39
2023-01-02T22:40:31.384Z,85.16
2023-01-02T22:43:04.772Z,85.52
2023-01-02T22:45:42.375Z,84.29
2023-01-02T22:48:34.465Z,84.92
2023-01-02T22:51:13.635Z,84.68
2023-01-02T22:53:44.400Z,85.07
2023-01-02T22:56:21.219Z,85.22
2023-01-02T22:58:52.191Z,85.44
2023-01-02T23:01:38.651Z,86.77
2023-01-02T23:04:20.411Z,87.43
2023-01-02T23:07:22.844Z,88.62
2023-01-02T23:09:43.365Z,88.95
2023-01-02T23:12:14.194Z,89.68
2023-01-02T23:14:45.902Z,90.60
2023-01-02T23:17:34.373Z,91.07
2023-01-02T23:20:04.917Z,91.20
2023-01-02T23:22:34.646Z,91.62
2023-01-02T23:25:08.674Z,91.78
2023-01-02T23:27:39.094Z,91.86
2023-01-02T23:30:10.807Z,92.20
2023-01-02T23:32:41.015Z,92.60
2023-01-02T23:35:12.334Z,92.79
2023-01-02T23:37:44.827Z,93.25
2023-01-02T23:40:15.535Z,93.45
2023-01-02T23:42:45.269Z,93.25
2023-01-02T23:45:15.466Z,93.35
2023-01-02T23:47:45.397Z,93.44
2023-01-02T23:50:17.287Z,93.67
2023-01-02T23:52:48.096Z,93.50
2023-01-02T23:55:18.488Z,93.84
2023-01-02T23:57:48.262Z,93.29
